sensor_id;sensor_type;location;lat;lon;timestamp;temperature;humidity
17728;DHT22;8984;49.268;12.302;2023-04-03T00:00:30;5.00;99.90
17728;DHT22;8984;49.268;12.302;2023-04-03T00:02:57;5.10;99.90
17728;DHT22;8984;49.268;12.302;2023-04-03T00:05:24;5.20;99.90
17728;DHT22;8984;49.268;12.302;2023-04-03T00:07:51;5.00;99.90
17728;DHT22;8984;49.268;12.302;2023-04-03T00:10:20;5.10;99.90
17728;DHT22;8984;49.268;12.302;2023-04-03T00:12:46;5.20;99.90
17728;DHT22;8984;49.268;12.302;2023-04-03T00:15:14;5.30;99.90
17728;DHT22;8984;49.268;12.302;2023-04-03T00:17:40;5.10;99.90
17728;DHT22;8984;49.268;12.302;2023-04-03T00:20:08;5.00;99.90
17728;DHT22;8984;49.268;12.302;2023-04-03T00:22:35;4.90;99.90
17728;DHT22;8984;49.268;12.302;2023-04-03T00:25:02;4.90;99.90
17728;DHT22;8984;49.268;12.302;2023-04-03T00:27:31;5.00;99.90
17728;DHT22;8984;49.268;12.302;2023-04-03T00:29:58;5.10;99.90
17728;DHT22;8984;49.268;12.302;2023-04-03T00:32:24;5.10;99.90
17728;DHT22;8984;49.268;12.302;2023-04-03T00:34:51;5.20;99.90
17728;DHT22;8984;49.268;12.302;2023-04-03T00:37:18;5.30;99.90
17728;DHT22;8984;49.268;12.302;2023-04-03T00:39:45;5.20;99.90
17728;DHT22;8984;49.268;12.302;2023-04-03T00:42:12;5.10;99.90
17728;DHT22;8984;49.268;12.302;2023-04-03T00:47:44;4.90;99.90
17728;DHT22;8984;49.268;12.302;2023-04-03T00:50:12;5.10;99.90
17728;DHT22;8984;49.268;12.302;2023-04-03T00:52:39;5.10;99.90
17728;DHT22;8984;49.268;12.302;2023-04-03T00:55:08;5.10;99.90
17728;DHT22;8984;49.268;12.302;2023-04-03T00:57:35;5.10;99.90
17728;DHT22;8984;49.268;12.302;2023-04-03T01:00:06;5.20;99.90
17728;DHT22;8984;49.268;12.302;2023-04-03T01:02:35;5.20;99.90
17728;DHT22;8984;49.268;12.302;2023-04-03T01:05:04;5.20;99.90
17728;DHT22;8984;49.268;12.302;2023-04-03T01:07:31;5.20;99.90
17728;DHT22;8984;49.268;12.302;2023-04-03T01:10:00;5.30;99.90
17728;DHT22;8984;49.268;12.302;2023-04-03T01:12:30;5.40;99.90
17728;DHT22;8984;49.268;12.302;2023-04-03T01:14:59;5.40;99.90
17728;DHT22;8984;49.268;12.302;2023-04-03T01:17:29;5.40;99.90
17728;DHT22;8984;49.268;12.302;2023-04-03T01:20:19;5.60;99.90
17728;DHT22;8984;49.268;12.302;2023-04-03T01:22:56;5.60;99.90
17728;DHT22;8984;49.268;12.302;2023-04-03T01:25:25;5.60;99.90
17728;DHT22;8984;49.268;12.302;2023-04-03T01:27:52;5.70;99.90
17728;DHT22;8984;49.268;12.302;2023-04-03T01:30:21;5.70;99.90
17728;DHT22;8984;49.268;12.302;2023-04-03T01:32:52;5.70;99.90
17728;DHT22;8984;49.268;12.302;2023-04-03T01:35:18;5.70;99.90
17728;DHT22;8984;49.268;12.302;2023-04-03T01:37:46;5.70;99.90
17728;DHT22;8984;49.268;12.302;2023-04-03T01:40:13;5.80;99.90
17728;DHT22;8984;49.268;12.302;2023-04-03T01:42:40;6.00;99.90
17728;DHT22;8984;49.268;12.302;2023-04-03T01:45:07;5.80;99.90
17728;DHT22;8984;49.268;12.302;2023-04-03T01:47:35;5.80;99.90
17728;DHT22;8984;49.268;12.302;2023-04-03T01:50:03;5.80;99.90
17728;DHT22;8984;49.268;12.302;2023-04-03T01:52:30;5.70;99.90
17728;DHT22;8984;49.268;12.302;2023-04-03T01:54:57;5.70;99.90
17728;DHT22;8984;49.268;12.302;2023-04-03T01:57:24;5.70;99.90
17728;DHT22;8984;49.268;12.302;2023-04-03T01:59:51;5.70;99.90
17728;DHT22;8984;49.268;12.302;2023-04-03T02:02:18;5.70;99.90
17728;DHT22;8984;49.268;12.302;2023-04-03T02:04:46;5.80;99.90
17728;DHT22;8984;49.268;12.302;2023-04-03T02:07:14;5.80;99.90
17728;DHT22;8984;49.268;12.302;2023-04-03T02:09:41;5.80;99.90
17728;DHT22;8984;49.268;12.302;2023-04-03T02:12:08;5.70;99.90
17728;DHT22;8984;49.268;12.302;2023-04-03T02:14:35;5.80;99.90
17728;DHT22;8984;49.268;12.302;2023-04-03T02:17:02;5.80;99.90
17728;DHT22;8984;49.268;12.302;2023-04-03T02:19:33;5.80;99.90
17728;DHT22;8984;49.268;12.302;2023-04-03T02:22:00;5.80;99.90
17728;DHT22;8984;49.268;12.302;2023-04-03T02:24:29;5.80;99.90
17728;DHT22;8984;49.268;12.302;2023-04-03T02:26:55;5.80;99.90
17728;DHT22;8984;49.268;12.302;2023-04-03T02:29:22;5.80;99.90
17728;DHT22;8984;49.268;12.302;2023-04-03T02:31:50;5.80;99.90
17728;DHT22;8984;49.268;12.302;2023-04-03T02:34:17;5.70;99.90
17728;DHT22;8984;49.268;12.302;2023-04-03T02:36:44;5.70;99.90
17728;DHT22;8984;49.268;12.302;2023-04-03T02:39:11;5.80;99.90
17728;DHT22;8984;49.268;12.302;2023-04-03T02:41:39;5.70;99.90
17728;DHT22;8984;49.268;12.302;2023-04-03T02:44:08;5.70;99.90
17728;DHT22;8984;49.268;12.302;2023-04-03T02:46:35;5.80;99.90
17728;DHT22;8984;49.268;12.302;2023-04-03T02:49:02;5.80;99.90
17728;DHT22;8984;49.268;12.302;2023-04-03T02:51:29;5.70;99.90
17728;DHT22;8984;49.268;12.302;2023-04-03T02:53:56;5.60;99.90
17728;DHT22;8984;49.268;12.302;2023-04-03T02:56:23;5.70;99.90
17728;DHT22;8984;49.268;12.302;2023-04-03T02:58:51;5.60;99.90
17728;DHT22;8984;49.268;12.302;2023-04-03T03:01:18;5.50;99.90
17728;DHT22;8984;49.268;12.302;2023-04-03T03:03:45;5.40;99.90
17728;DHT22;8984;49.268;12.302;2023-04-03T03:06:14;5.50;99.90
17728;DHT22;8984;49.268;12.302;2023-04-03T03:08:42;5.40;99.90
17728;DHT22;8984;49.268;12.302;2023-04-03T03:11:09;5.40;99.90
17728;DHT22;8984;49.268;12.302;2023-04-03T03:13:36;5.50;99.90
17728;DHT22;8984;49.268;12.302;2023-04-03T03:16:05;5.40;99.90
17728;DHT22;8984;49.268;12.302;2023-04-03T03:18:33;5.40;99.90
17728;DHT22;8984;49.268;12.302;2023-04-03T03:21:01;5.40;99.90
17728;DHT22;8984;49.268;12.302;2023-04-03T03:23:29;5.30;99.90
17728;DHT22;8984;49.268;12.302;2023-04-03T03:25:59;5.40;99.90
17728;DHT22;8984;49.268;12.302;2023-04-03T03:28:26;5.40;99.90
17728;DHT22;8984;49.268;12.302;2023-04-03T03:30:53;5.40;99.90
17728;DHT22;8984;49.268;12.302;2023-04-03T03:33:22;5.50;99.90
17728;DHT22;8984;49.268;12.302;2023-04-03T03:35:48;5.50;99.90
17728;DHT22;8984;49.268;12.302;2023-04-03T03:38:15;5.40;99.90
17728;DHT22;8984;49.268;12.302;2023-04-03T03:40:42;5.40;99.90
17728;DHT22;8984;49.268;12.302;2023-04-03T03:43:09;5.50;99.90
17728;DHT22;8984;49.268;12.302;2023-04-03T03:45:36;5.50;99.90
17728;DHT22;8984;49.268;12.302;2023-04-03T03:48:03;5.40;99.90
17728;DHT22;8984;49.268;12.302;2023-04-03T03:50:31;5.50;99.90
17728;DHT22;8984;49.268;12.302;2023-04-03T03:52:58;5.50;99.90
17728;DHT22;8984;49.268;12.302;2023-04-03T03:55:25;5.60;99.90
17728;DHT22;8984;49.268;12.302;2023-04-03T03:57:52;5.60;99.90
17728;DHT22;8984;49.268;12.302;2023-04-03T04:00:19;5.60;99.90
17728;DHT22;8984;49.268;12.302;2023-04-03T04:02:46;5.70;99.90
17728;DHT22;8984;49.268;12.302;2023-04-03T04:05:13;5.60;99.90
17728;DHT22;8984;49.268;12.302;2023-04-03T04:07:41;5.60;99.90
17728;DHT22;8984;49.268;12.302;2023-04-03T04:10:09;5.60;99.90
17728;DHT22;8984;49.268;12.302;2023-04-03T04:12:36;5.60;99.90
17728;DHT22;8984;49.268;12.302;2023-04-03T04:15:03;5.60;99.90
17728;DHT22;8984;49.268;12.302;2023-04-03T04:17:30;5.60;99.90
17728;DHT22;8984;49.268;12.302;2023-04-03T04:19:57;5.60;99.90
17728;DHT22;8984;49.268;12.302;2023-04-03T04:22:24;5.50;99.90
17728;DHT22;8984;49.268;12.302;2023-04-03T04:24:52;5.60;99.90
17728;DHT22;8984;49.268;12.302;2023-04-03T04:27:19;5.50;99.90
17728;DHT22;8984;49.268;12.302;2023-04-03T04:29:46;5.50;99.90
17728;DHT22;8984;49.268;12.302;2023-04-03T04:32:13;5.60;99.90
17728;DHT22;8984;49.268;12.302;2023-04-03T04:34:40;5.50;99.90
17728;DHT22;8984;49.268;12.302;2023-04-03T04:37:06;5.60;99.90
17728;DHT22;8984;49.268;12.302;2023-04-03T04:39:33;5.60;99.90
17728;DHT22;8984;49.268;12.302;2023-04-03T04:42:02;5.60;99.90
17728;DHT22;8984;49.268;12.302;2023-04-03T04:44:29;5.60;99.90
17728;DHT22;8984;49.268;12.302;2023-04-03T04:46:56;5.60;99.90
17728;DHT22;8984;49.268;12.302;2023-04-03T04:49:23;5.60;99.90
17728;DHT22;8984;49.268;12.302;2023-04-03T04:51:50;5.40;99.90
17728;DHT22;8984;49.268;12.302;2023-04-03T04:54:17;5.50;99.90
17728;DHT22;8984;49.268;12.302;2023-04-03T04:56:44;5.50;99.90
17728;DHT22;8984;49.268;12.302;2023-04-03T04:59:12;5.50;99.90
17728;DHT22;8984;49.268;12.302;2023-04-03T05:01:40;5.50;99.90
17728;DHT22;8984;49.268;12.302;2023-04-03T05:04:14;5.50;99.90
17728;DHT22;8984;49.268;12.302;2023-04-03T05:06:51;5.60;99.90
17728;DHT22;8984;49.268;12.302;2023-04-03T05:09:30;5.60;99.90
17728;DHT22;8984;49.268;12.302;2023-04-03T05:12:06;5.50;99.90
17728;DHT22;8984;49.268;12.302;2023-04-03T05:17:55;5.60;99.90
17728;DHT22;8984;49.268;12.302;2023-04-03T05:20:27;5.50;99.90
17728;DHT22;8984;49.268;12.302;2023-04-03T05:22:57;5.50;99.90
17728;DHT22;8984;49.268;12.302;2023-04-03T05:25:25;5.50;99.90
17728;DHT22;8984;49.268;12.302;2023-04-03T05:27:53;5.60;99.90
17728;DHT22;8984;49.268;12.302;2023-04-03T05:30:21;5.60;99.90
17728;DHT22;8984;49.268;12.302;2023-04-03T05:33:02;5.60;99.90
17728;DHT22;8984;49.268;12.302;2023-04-03T05:35:32;5.70;99.90
17728;DHT22;8984;49.268;12.302;2023-04-03T05:38:00;5.70;99.90
17728;DHT22;8984;49.268;12.302;2023-04-03T05:40:37;5.70;99.90
17728;DHT22;8984;49.268;12.302;2023-04-03T05:43:06;5.80;99.90
17728;DHT22;8984;49.268;12.302;2023-04-03T05:45:37;5.80;99.90
17728;DHT22;8984;49.268;12.302;2023-04-03T05:48:12;5.90;99.90
17728;DHT22;8984;49.268;12.302;2023-04-03T05:50:47;5.90;99.90
17728;DHT22;8984;49.268;12.302;2023-04-03T05:53:17;5.80;99.90
17728;DHT22;8984;49.268;12.302;2023-04-03T05:55:46;5.70;99.90
17728;DHT22;8984;49.268;12.302;2023-04-03T06:01:05;5.20;99.90
17728;DHT22;8984;49.268;12.302;2023-04-03T06:06:21;5.40;99.90
17728;DHT22;8984;49.268;12.302;2023-04-03T06:08:51;5.40;99.90
17728;DHT22;8984;49.268;12.302;2023-04-03T06:11:19;5.50;99.90
17728;DHT22;8984;49.268;12.302;2023-04-03T06:13:48;5.60;99.90
17728;DHT22;8984;49.268;12.302;2023-04-03T06:16:32;5.40;99.90
17728;DHT22;8984;49.268;12.302;2023-04-03T06:19:01;5.40;99.90
17728;DHT22;8984;49.268;12.302;2023-04-03T06:21:30;5.40;99.90
17728;DHT22;8984;49.268;12.302;2023-04-03T06:24:01;5.50;99.90
17728;DHT22;8984;49.268;12.302;2023-04-03T06:26:31;5.40;99.90
17728;DHT22;8984;49.268;12.302;2023-04-03T06:28:59;5.40;99.90
17728;DHT22;8984;49.268;12.302;2023-04-03T06:31:29;5.30;99.90
17728;DHT22;8984;49.268;12.302;2023-04-03T06:33:58;5.30;99.90
17728;DHT22;8984;49.268;12.302;2023-04-03T06:36:29;5.20;99.90
17728;DHT22;8984;49.268;12.302;2023-04-03T06:38:58;5.20;99.90
17728;DHT22;8984;49.268;12.302;2023-04-03T06:41:26;5.30;99.90
17728;DHT22;8984;49.268;12.302;2023-04-03T06:43:54;5.30;99.90
17728;DHT22;8984;49.268;12.302;2023-04-03T06:46:23;5.20;99.90
17728;DHT22;8984;49.268;12.302;2023-04-03T06:48:52;5.40;99.90
17728;DHT22;8984;49.268;12.302;2023-04-03T06:51:21;5.30;99.90
17728;DHT22;8984;49.268;12.302;2023-04-03T06:53:54;5.40;99.90
17728;DHT22;8984;49.268;12.302;2023-04-03T06:56:22;5.20;99.90
17728;DHT22;8984;49.268;12.302;2023-04-03T06:58:58;5.20;99.90
17728;DHT22;8984;49.268;12.302;2023-04-03T07:01:31;5.20;99.90
17728;DHT22;8984;49.268;12.302;2023-04-03T07:03:59;5.10;99.90
17728;DHT22;8984;49.268;12.302;2023-04-03T07:06:29;5.10;99.90
17728;DHT22;8984;49.268;12.302;2023-04-03T07:09:06;5.10;99.90
17728;DHT22;8984;49.268;12.302;2023-04-03T07:11:35;5.30;99.90
17728;DHT22;8984;49.268;12.302;2023-04-03T07:14:03;5.20;99.90
17728;DHT22;8984;49.268;12.302;2023-04-03T07:16:35;5.20;99.90
17728;DHT22;8984;49.268;12.302;2023-04-03T07:19:07;5.30;99.90
17728;DHT22;8984;49.268;12.302;2023-04-03T07:21:37;5.20;99.90
17728;DHT22;8984;49.268;12.302;2023-04-03T07:24:06;5.30;99.90
17728;DHT22;8984;49.268;12.302;2023-04-03T07:26:34;5.40;99.90
17728;DHT22;8984;49.268;12.302;2023-04-03T07:29:04;5.60;99.90
17728;DHT22;8984;49.268;12.302;2023-04-03T07:31:33;5.80;99.90
17728;DHT22;8984;49.268;12.302;2023-04-03T07:34:02;6.20;99.90
17728;DHT22;8984;49.268;12.302;2023-04-03T07:36:34;6.20;99.90
17728;DHT22;8984;49.268;12.302;2023-04-03T07:39:03;5.90;99.90
17728;DHT22;8984;49.268;12.302;2023-04-03T07:41:36;6.10;99.90
17728;DHT22;8984;49.268;12.302;2023-04-03T07:44:04;6.10;99.90
17728;DHT22;8984;49.268;12.302;2023-04-03T07:46:41;6.10;99.90
17728;DHT22;8984;49.268;12.302;2023-04-03T07:49:15;6.40;99.90
17728;DHT22;8984;49.268;12.302;2023-04-03T07:51:50;6.50;99.90
17728;DHT22;8984;49.268;12.302;2023-04-03T07:54:20;6.50;99.90
17728;DHT22;8984;49.268;12.302;2023-04-03T07:57:09;6.50;99.90
17728;DHT22;8984;49.268;12.302;2023-04-03T07:59:43;6.30;99.90
17728;DHT22;8984;49.268;12.302;2023-04-03T08:02:12;5.80;99.90
17728;DHT22;8984;49.268;12.302;2023-04-03T08:04:42;6.00;99.90
17728;DHT22;8984;49.268;12.302;2023-04-03T08:07:12;6.00;99.90
17728;DHT22;8984;49.268;12.302;2023-04-03T08:09:41;5.90;99.90
17728;DHT22;8984;49.268;12.302;2023-04-03T08:12:12;5.70;99.90
17728;DHT22;8984;49.268;12.302;2023-04-03T08:14:44;6.00;99.90
17728;DHT22;8984;49.268;12.302;2023-04-03T08:17:13;6.00;99.90
17728;DHT22;8984;49.268;12.302;2023-04-03T08:19:45;6.20;99.90
17728;DHT22;8984;49.268;12.302;2023-04-03T08:22:16;6.60;99.90
17728;DHT22;8984;49.268;12.302;2023-04-03T08:24:46;6.90;99.90
17728;DHT22;8984;49.268;12.302;2023-04-03T08:27:22;7.00;99.90
17728;DHT22;8984;49.268;12.302;2023-04-03T08:29:57;7.30;99.90
17728;DHT22;8984;49.268;12.302;2023-04-03T08:32:25;7.60;99.90
17728;DHT22;8984;49.268;12.302;2023-04-03T08:34:55;8.10;99.90
17728;DHT22;8984;49.268;12.302;2023-04-03T08:37:27;7.90;99.90
17728;DHT22;8984;49.268;12.302;2023-04-03T08:39:55;7.90;99.90
17728;DHT22;8984;49.268;12.302;2023-04-03T08:42:38;7.80;99.90
17728;DHT22;8984;49.268;12.302;2023-04-03T08:45:10;7.60;99.90
17728;DHT22;8984;49.268;12.302;2023-04-03T08:47:50;7.60;99.90
17728;DHT22;8984;49.268;12.302;2023-04-03T08:50:23;7.60;99.90
17728;DHT22;8984;49.268;12.302;2023-04-03T08:52:59;7.40;99.90
17728;DHT22;8984;49.268;12.302;2023-04-03T08:55:31;7.00;99.90
17728;DHT22;8984;49.268;12.302;2023-04-03T08:58:05;7.20;99.90
17728;DHT22;8984;49.268;12.302;2023-04-03T09:00:43;7.20;99.90
17728;DHT22;8984;49.268;12.302;2023-04-03T09:03:12;7.10;99.90
17728;DHT22;8984;49.268;12.302;2023-04-03T09:05:50;7.20;99.90
17728;DHT22;8984;49.268;12.302;2023-04-03T09:08:29;7.10;99.90
17728;DHT22;8984;49.268;12.302;2023-04-03T09:11:09;7.10;99.90
17728;DHT22;8984;49.268;12.302;2023-04-03T09:13:52;7.30;99.90
17728;DHT22;8984;49.268;12.302;2023-04-03T09:16:33;7.70;99.90
17728;DHT22;8984;49.268;12.302;2023-04-03T09:19:15;7.80;99.90
17728;DHT22;8984;49.268;12.302;2023-04-03T09:21:52;7.70;99.90
17728;DHT22;8984;49.268;12.302;2023-04-03T09:24:34;7.70;99.90
17728;DHT22;8984;49.268;12.302;2023-04-03T09:27:09;7.70;99.20
17728;DHT22;8984;49.268;12.302;2023-04-03T09:29:42;7.60;98.20
17728;DHT22;8984;49.268;12.302;2023-04-03T09:32:23;7.80;99.40
17728;DHT22;8984;49.268;12.302;2023-04-03T09:34:53;7.50;99.10
17728;DHT22;8984;49.268;12.302;2023-04-03T09:37:37;7.60;99.50
17728;DHT22;8984;49.268;12.302;2023-04-03T09:42:57;7.60;98.10
17728;DHT22;8984;49.268;12.302;2023-04-03T09:45:33;7.90;98.80
17728;DHT22;8984;49.268;12.302;2023-04-03T09:48:08;8.00;98.10
17728;DHT22;8984;49.268;12.302;2023-04-03T09:50:54;7.90;97.90
17728;DHT22;8984;49.268;12.302;2023-04-03T09:53:38;7.60;97.50
17728;DHT22;8984;49.268;12.302;2023-04-03T09:56:20;7.60;97.10
17728;DHT22;8984;49.268;12.302;2023-04-03T09:59:17;7.70;98.10
17728;DHT22;8984;49.268;12.302;2023-04-03T10:02:21;8.00;97.30
17728;DHT22;8984;49.268;12.302;2023-04-03T10:04:51;7.90;98.20
17728;DHT22;8984;49.268;12.302;2023-04-03T10:07:30;7.70;99.00
17728;DHT22;8984;49.268;12.302;2023-04-03T10:10:03;8.00;97.30
17728;DHT22;8984;49.268;12.302;2023-04-03T10:13:04;7.90;98.00
17728;DHT22;8984;49.268;12.302;2023-04-03T10:15:44;8.40;97.20
17728;DHT22;8984;49.268;12.302;2023-04-03T10:18:44;7.80;96.60
17728;DHT22;8984;49.268;12.302;2023-04-03T10:21:29;7.90;96.60
17728;DHT22;8984;49.268;12.302;2023-04-03T10:24:08;7.90;97.30
17728;DHT22;8984;49.268;12.302;2023-04-03T10:26:54;8.30;96.80
17728;DHT22;8984;49.268;12.302;2023-04-03T10:29:39;8.10;97.30
17728;DHT22;8984;49.268;12.302;2023-04-03T10:32:24;8.50;97.90
17728;DHT22;8984;49.268;12.302;2023-04-03T10:35:00;7.60;97.20
17728;DHT22;8984;49.268;12.302;2023-04-03T10:37:35;7.30;98.00
17728;DHT22;8984;49.268;12.302;2023-04-03T10:40:20;7.30;98.40
17728;DHT22;8984;49.268;12.302;2023-04-03T10:43:08;7.30;98.10
17728;DHT22;8984;49.268;12.302;2023-04-03T10:46:00;7.30;96.90
17728;DHT22;8984;49.268;12.302;2023-04-03T10:48:53;7.30;97.00
17728;DHT22;8984;49.268;12.302;2023-04-03T10:51:29;7.50;96.90
17728;DHT22;8984;49.268;12.302;2023-04-03T10:54:07;7.80;97.00
17728;DHT22;8984;49.268;12.302;2023-04-03T10:56:42;8.00;96.20
17728;DHT22;8984;49.268;12.302;2023-04-03T10:59:26;8.20;97.20
17728;DHT22;8984;49.268;12.302;2023-04-03T11:02:14;7.90;97.10
17728;DHT22;8984;49.268;12.302;2023-04-03T11:04:55;8.00;97.30
17728;DHT22;8984;49.268;12.302;2023-04-03T11:07:36;7.00;97.80
17728;DHT22;8984;49.268;12.302;2023-04-03T11:10:14;7.00;97.80
17728;DHT22;8984;49.268;12.302;2023-04-03T11:12:44;7.60;98.10
17728;DHT22;8984;49.268;12.302;2023-04-03T11:15:32;7.80;96.70
17728;DHT22;8984;49.268;12.302;2023-04-03T11:18:17;7.90;95.70
17728;DHT22;8984;49.268;12.302;2023-04-03T11:20:57;8.10;96.30
17728;DHT22;8984;49.268;12.302;2023-04-03T11:23:36;8.30;95.60
17728;DHT22;8984;49.268;12.302;2023-04-03T11:26:14;8.40;95.00
17728;DHT22;8984;49.268;12.302;2023-04-03T11:29:04;8.50;95.20
17728;DHT22;8984;49.268;12.302;2023-04-03T11:31:42;8.20;93.60
17728;DHT22;8984;49.268;12.302;2023-04-03T11:34:23;8.10;94.60
17728;DHT22;8984;49.268;12.302;2023-04-03T11:36:55;8.00;94.70
17728;DHT22;8984;49.268;12.302;2023-04-03T11:39:33;7.80;94.30
17728;DHT22;8984;49.268;12.302;2023-04-03T11:42:33;7.40;94.80
17728;DHT22;8984;49.268;12.302;2023-04-03T11:45:31;7.50;95.60
17728;DHT22;8984;49.268;12.302;2023-04-03T11:48:02;7.70;94.70
17728;DHT22;8984;49.268;12.302;2023-04-03T11:50:46;7.80;95.10
17728;DHT22;8984;49.268;12.302;2023-04-03T11:53:54;7.70;94.70
17728;DHT22;8984;49.268;12.302;2023-04-03T11:56:44;7.80;95.80
17728;DHT22;8984;49.268;12.302;2023-04-03T11:59:23;8.10;95.00
17728;DHT22;8984;49.268;12.302;2023-04-03T12:01:53;8.30;94.30
17728;DHT22;8984;49.268;12.302;2023-04-03T12:04:33;8.00;93.90
17728;DHT22;8984;49.268;12.302;2023-04-03T12:07:20;7.80;93.70
17728;DHT22;8984;49.268;12.302;2023-04-03T12:10:17;7.40;94.00
17728;DHT22;8984;49.268;12.302;2023-04-03T12:13:12;7.40;93.00
17728;DHT22;8984;49.268;12.302;2023-04-03T12:15:58;7.40;93.90
17728;DHT22;8984;49.268;12.302;2023-04-03T12:18:53;8.00;94.60
17728;DHT22;8984;49.268;12.302;2023-04-03T12:28:10;8.70;93.70
17728;DHT22;8984;49.268;12.302;2023-04-03T12:30:43;8.40;94.10
17728;DHT22;8984;49.268;12.302;2023-04-03T12:33:24;8.60;94.10
17728;DHT22;8984;49.268;12.302;2023-04-03T12:36:04;8.70;93.90
17728;DHT22;8984;49.268;12.302;2023-04-03T12:39:16;9.10;94.00
17728;DHT22;8984;49.268;12.302;2023-04-03T12:42:11;9.30;94.00
17728;DHT22;8984;49.268;12.302;2023-04-03T12:45:00;9.20;93.70
17728;DHT22;8984;49.268;12.302;2023-04-03T12:47:42;8.80;92.50
17728;DHT22;8984;49.268;12.302;2023-04-03T12:53:35;8.70;93.70
17728;DHT22;8984;49.268;12.302;2023-04-03T12:56:31;8.80;94.60
17728;DHT22;8984;49.268;12.302;2023-04-03T12:59:14;8.80;94.50
17728;DHT22;8984;49.268;12.302;2023-04-03T13:01:59;8.70;94.20
17728;DHT22;8984;49.268;12.302;2023-04-03T13:04:29;8.60;94.70
17728;DHT22;8984;49.268;12.302;2023-04-03T13:06:57;8.40;93.90
17728;DHT22;8984;49.268;12.302;2023-04-03T13:09:33;8.40;94.50
17728;DHT22;8984;49.268;12.302;2023-04-03T13:12:03;8.50;94.40
17728;DHT22;8984;49.268;12.302;2023-04-03T13:14:52;8.40;93.90
17728;DHT22;8984;49.268;12.302;2023-04-03T13:17:27;8.20;93.80
17728;DHT22;8984;49.268;12.302;2023-04-03T13:20:09;8.90;94.40
17728;DHT22;8984;49.268;12.302;2023-04-03T13:22:39;9.20;93.90
17728;DHT22;8984;49.268;12.302;2023-04-03T13:25:16;9.10;93.90
17728;DHT22;8984;49.268;12.302;2023-04-03T13:27:44;8.90;93.30
17728;DHT22;8984;49.268;12.302;2023-04-03T13:30:25;8.90;93.80
17728;DHT22;8984;49.268;12.302;2023-04-03T13:32:59;8.70;93.40
17728;DHT22;8984;49.268;12.302;2023-04-03T13:35:44;8.60;94.10
17728;DHT22;8984;49.268;12.302;2023-04-03T13:38:24;8.20;93.40
17728;DHT22;8984;49.268;12.302;2023-04-03T13:41:23;8.30;94.10
17728;DHT22;8984;49.268;12.302;2023-04-03T13:43:54;8.70;94.20
17728;DHT22;8984;49.268;12.302;2023-04-03T13:46:30;8.70;94.40
17728;DHT22;8984;49.268;12.302;2023-04-03T13:52:22;8.70;93.00
17728;DHT22;8984;49.268;12.302;2023-04-03T13:54:53;8.60;93.10
17728;DHT22;8984;49.268;12.302;2023-04-03T13:57:27;8.30;93.70
17728;DHT22;8984;49.268;12.302;2023-04-03T14:00:31;8.70;93.70
17728;DHT22;8984;49.268;12.302;2023-04-03T14:03:00;8.70;93.60
17728;DHT22;8984;49.268;12.302;2023-04-03T14:05:31;8.90;94.30
17728;DHT22;8984;49.268;12.302;2023-04-03T14:07:58;8.50;93.80
17728;DHT22;8984;49.268;12.302;2023-04-03T14:10:30;8.70;93.90
17728;DHT22;8984;49.268;12.302;2023-04-03T14:12:57;8.60;93.50
17728;DHT22;8984;49.268;12.302;2023-04-03T14:15:51;8.50;93.10
17728;DHT22;8984;49.268;12.302;2023-04-03T14:18:20;8.50;95.90
17728;DHT22;8984;49.268;12.302;2023-04-03T14:20:57;9.00;99.90
17728;DHT22;8984;49.268;12.302;2023-04-03T14:23:32;9.20;96.50
17728;DHT22;8984;49.268;12.302;2023-04-03T14:26:00;8.90;94.30
17728;DHT22;8984;49.268;12.302;2023-04-03T14:28:30;8.80;95.80
17728;DHT22;8984;49.268;12.302;2023-04-03T14:31:10;8.80;95.10
17728;DHT22;8984;49.268;12.302;2023-04-03T14:33:43;9.00;95.00
17728;DHT22;8984;49.268;12.302;2023-04-03T14:36:21;8.50;93.60
17728;DHT22;8984;49.268;12.302;2023-04-03T14:38:51;8.50;94.00
17728;DHT22;8984;49.268;12.302;2023-04-03T14:41:25;8.70;94.20
17728;DHT22;8984;49.268;12.302;2023-04-03T14:43:54;8.70;95.00
17728;DHT22;8984;49.268;12.302;2023-04-03T14:46:26;9.10;95.90
17728;DHT22;8984;49.268;12.302;2023-04-03T14:48:54;9.30;95.00
17728;DHT22;8984;49.268;12.302;2023-04-03T14:51:32;8.50;94.40
17728;DHT22;8984;49.268;12.302;2023-04-03T14:54:19;8.40;94.10
17728;DHT22;8984;49.268;12.302;2023-04-03T14:57:00;8.00;94.40
17728;DHT22;8984;49.268;12.302;2023-04-03T14:59:30;7.90;95.00
17728;DHT22;8984;49.268;12.302;2023-04-03T15:02:25;8.10;95.90
17728;DHT22;8984;49.268;12.302;2023-04-03T15:04:59;8.10;94.50
17728;DHT22;8984;49.268;12.302;2023-04-03T15:07:31;8.50;96.00
17728;DHT22;8984;49.268;12.302;2023-04-03T15:10:15;8.70;94.40
17728;DHT22;8984;49.268;12.302;2023-04-03T15:12:49;8.40;95.20
17728;DHT22;8984;49.268;12.302;2023-04-03T15:15:27;8.40;95.20
17728;DHT22;8984;49.268;12.302;2023-04-03T15:17:57;8.20;95.40
17728;DHT22;8984;49.268;12.302;2023-04-03T15:20:29;8.00;95.30
17728;DHT22;8984;49.268;12.302;2023-04-03T15:23:03;7.50;95.00
17728;DHT22;8984;49.268;12.302;2023-04-03T15:25:33;7.60;96.10
17728;DHT22;8984;49.268;12.302;2023-04-03T15:28:01;7.70;96.50
17728;DHT22;8984;49.268;12.302;2023-04-03T15:30:30;8.00;96.20
17728;DHT22;8984;49.268;12.302;2023-04-03T15:32:59;7.90;95.70
17728;DHT22;8984;49.268;12.302;2023-04-03T15:35:37;7.90;95.80
17728;DHT22;8984;49.268;12.302;2023-04-03T15:38:08;8.00;95.80
17728;DHT22;8984;49.268;12.302;2023-04-03T15:40:35;7.80;96.10
17728;DHT22;8984;49.268;12.302;2023-04-03T15:43:05;7.50;96.30
17728;DHT22;8984;49.268;12.302;2023-04-03T15:45:36;7.40;96.60
17728;DHT22;8984;49.268;12.302;2023-04-03T15:48:05;7.30;96.80
17728;DHT22;8984;49.268;12.302;2023-04-03T15:50:38;7.40;97.20
17728;DHT22;8984;49.268;12.302;2023-04-03T15:53:11;7.30;96.60
17728;DHT22;8984;49.268;12.302;2023-04-03T15:55:39;7.00;96.40
17728;DHT22;8984;49.268;12.302;2023-04-03T15:58:08;6.80;96.70
17728;DHT22;8984;49.268;12.302;2023-04-03T16:00:38;6.70;96.80
17728;DHT22;8984;49.268;12.302;2023-04-03T16:03:12;6.70;96.90
17728;DHT22;8984;49.268;12.302;2023-04-03T16:05:41;6.90;96.80
17728;DHT22;8984;49.268;12.302;2023-04-03T16:08:26;6.70;96.50
17728;DHT22;8984;49.268;12.302;2023-04-03T16:10:56;6.50;96.70
17728;DHT22;8984;49.268;12.302;2023-04-03T16:13:24;6.50;96.70
17728;DHT22;8984;49.268;12.302;2023-04-03T16:15:53;6.40;96.90
17728;DHT22;8984;49.268;12.302;2023-04-03T16:18:25;6.40;97.70
17728;DHT22;8984;49.268;12.302;2023-04-03T16:21:07;6.30;97.80
17728;DHT22;8984;49.268;12.302;2023-04-03T16:23:44;6.40;97.80
17728;DHT22;8984;49.268;12.302;2023-04-03T16:26:13;6.30;97.60
17728;DHT22;8984;49.268;12.302;2023-04-03T16:28:41;6.20;97.80
17728;DHT22;8984;49.268;12.302;2023-04-03T16:31:10;6.20;98.00
17728;DHT22;8984;49.268;12.302;2023-04-03T16:33:41;6.00;97.20
17728;DHT22;8984;49.268;12.302;2023-04-03T16:36:12;6.00;97.30
17728;DHT22;8984;49.268;12.302;2023-04-03T16:43:59;5.70;97.40
17728;DHT22;8984;49.268;12.302;2023-04-03T16:46:28;5.70;96.80
17728;DHT22;8984;49.268;12.302;2023-04-03T16:49:04;6.00;97.30
17728;DHT22;8984;49.268;12.302;2023-04-03T16:51:34;5.60;97.20
17728;DHT22;8984;49.268;12.302;2023-04-03T16:54:17;5.90;97.30
17728;DHT22;8984;49.268;12.302;2023-04-03T16:56:59;5.90;97.60